Relevés horaires Matro (Suisse)


Relevés horaires à Matro - Vendredi 02 Janv. 2015
Heure UTC1 Température [°C] Vent [km/h] Hum. [%] Pres.4 [hPa] Visi. [Km] Nébu. [octa] Préc.5 [mm] Cond.
2m. Res. Ros. Dir.2 Vit. Moy. Raf.3
23:00 4.0 -1.8 -13.2 NO 37.0 42.6 63.0 27 850(-0.8/3h) -- -- -- --
22:00 3.6 -1.9 -11.2 NO 31.5 40.7 61.1 33 850(-0.5/3h) -- -- -- --
21:00 3.3 -2.9 -5.2 NNO 38.9 38.9 59.3 54 850(0.1/3h) -- -- -- --
20:00 3.1 -2.4 -1.0 NO 29.6 35.2 59.3 74 850(0.4/3h) -- -- -- --
19:00 3.3 -2.6 -0.7 NO 35.2 35.2 50.0 75 850(0.1/3h) -- -- -- --
18:00 3.9 -1.7 -1.3 NNO 33.3 37.0 50.0 69 850(-0.1/3h) -- -- -- --
17:00 3.7 -1.2 -1.3 NNO 25.9 27.8 44.4 70 850(-0.4/3h) -- -- -- --
16:00 3.8 -0.7 -2.5 NNO 22.2 27.8 38.9 63 850(0.1/3h) -- -- -- --
15:00 3.9 -1.2 -6.1 NNO 27.8 35.2 50.0 48 850(-0.6/3h) -- -- -- --
14:00 4.6 -0.4 -8.8 NNO 29.6 35.2 50.0 37 850(-1.2/3h) -- -- -- --
13:00 5.5 0.9 -10.8 NO 27.8 27.8 31.5 30 850(-1.7/3h) -- -- -- --
12:00 5.8 2.3 -11.0 ONO 18.5 31.5 42.6 29 850(-0.7/3h) -- -- -- --
11:00 5.3 0.8 -11.3 NO 25.9 25.9 37.0 29 850(0.2/3h) -- -- -- --
10:00 5.3 1.2 -10.7 NO 22.2 27.8 37.0 30 850(0.8/3h) -- -- -- --
09:00 5.6 0.7 -11.1 NO 31.5 31.5 42.6 29 850(0.5/3h) -- -- -- --
08:00 5.3 2.1 -11.3 NNO 14.8 24.1 29.6 29 850(0.5/3h) -- -- -- --
07:00 5.2 0.7 -10.3 NO 25.9 27.8 35.2 32 850(0.2/3h) -- -- -- --
06:00 4.8 0.8 -9.5 NO 20.4 24.1 29.6 35 850(-0.2/3h) -- -- -- --
05:00 5.0 1 -9.2 NO 20.4 20.4 29.6 35 850(-0.6/3h) -- -- -- --
04:00 5.5 1.2 -9.2 NO 24.1 24.1 29.6 34 850(-0.2/3h) -- -- -- --
03:00 5.3 2.1 -9.2 NO 14.8 14.8 20.4 34 850(-0.2/3h) -- -- -- --
02:00 5.1 1.9 -8.6 NO 14.8 14.8 20.4 36 850(-0.2/3h) -- -- -- --
01:00 4.3 1.2 -8.2 NNO 13.0 14.8 16.7 40 850(-0.4/3h) -- -- -- --
00:00 5.2 3.1 -8.3 ONO 9.3 24.1 29.6 37 850(-0.1/3h) -- -- -- --

1 Coordinated Universal Time. Actuellement il est 22:00 locale et 20:00 UTC.

2 Le vent souffle depuis la direction indiquée vers la direction oposée.

3 Les rafales max. sont disponible 40 min après l'heure du relevé.

4 Pour les stations d'altitude (plus de 600m) le géopotentiel du niveau le plus proche de la pression obligatoire est indiqué.

5 Les stations disposant d'un diffuseur peuvent indiquer "trace". Cela signifie que des précipitations ont touchés le sol mais que la quantité est inférieure à 0.1 mm.

Copyright

Les données affichées sur cette page sont la propriété exclusive de Météo Suisse.

Récapitulatif de la journée
Température [°C] Vent [km/h] Ensoleillement4 [h] Precipitations totale5 [mm] Pression [Hpa]
Min1 Max.2 Moy.3 Max. Min Max.
4.3 5.8 28.7 63.0 2 h 54 min 0 850.0 850.0

1 Température minimale relevée entre 18:00 UTC la veille et 18:00 UTC le jour donné.

2 Température maximale relevée entre 06:00 UTC le jour donné et 06:00 UTC le lendemain.

3 Vent moyen de la journée basé sur les relevés horaires.

4 Ensoleillement en heures relevé entre 06:00 UTC la veille et 06:00 UTC le jour donné.

5 Précipitations totales tombées entre 06:00 UTC la jour donné et 06:00 UTC le lendemain.

Graphiques horaires